Flight Track Log - Related Links

Times and Time Zones

All times are in EDT time to prevent confusion due to time zone crossing. See the SKW6492 flight status page for this flight to view local times or setup timezone preferences in your user account.

Time Position Orientation Groundspeed Altitude Reporting Facility
EDT Latitude Longitude Course Direction KTS MPH feet Rate Location/Type
Fri 09:38:29 PM 39.9167 -104.6833 346° North 165 190 6,700  Level Denver TRACON
Fri 09:39:29 PM 39.9667 -104.6833 360° North 227 261 8,600 1,758 Climbing Denver TRACON
Fri 09:40:08 PM 40.0106 -104.6672 16° North 254 292 9,600 2,020 Climbing Denver Center
Fri 09:41:00 PM 40.2560 -104.7984 347° North  Level FlightAware Approximate
Fri 09:41:10 PM 40.0950 -104.6706 358° North 282 325 12,000  Level Denver Center
Fri 09:42:00 PM 40.3578 -104.8304 346° North  Level FlightAware Approximate
Fri 09:42:13 PM 40.1778 -104.6914 349° North 298 343 14,800  Level Denver Center
Fri 09:43:00 PM 40.4594 -104.8642 346° North  Level FlightAware Approximate
Fri 09:43:15 PM 40.2681 -104.7158 348° North 308 354 17,100  Level Denver Center
Fri 09:44:17 PM 40.3519 -104.7383 348° North 305 351 18,600 1,210 Climbing Denver Center
Fri 09:45:19 PM 40.4569 -104.7636 350° North 358 412 19,600 1,065 Climbing Denver Center
Fri 09:46:21 PM 40.5539 -104.7906 348° North 360 414 20,800 1,258 Climbing Denver Center
Fri 09:47:23 PM 40.6622 -104.8186 349° North 363 418 22,200 1,210 Climbing Denver Center
Fri 09:48:25 PM 40.7606 -104.8425 350° North 356 410 23,300 1,113 Climbing Denver Center
Fri 09:49:27 PM 40.8614 -104.8864 342° North 378 435 24,500 823 Climbing Denver Center
Fri 09:50:29 PM 40.9639 -104.9381 339° North 389 448 25,000 629 Climbing Denver Center
Fri 09:51:31 PM 41.0692 -104.9883 340° North 397 457 25,800 677 Climbing Denver Center
Fri 09:52:33 PM 41.1897 -105.0453 340° North 408 470 26,400 581 Climbing Denver Center
Fri 09:53:35 PM 41.2933 -105.0983 339° North 414 476 27,000 726 Climbing Denver Center
Fri 09:54:37 PM 41.4133 -105.1606 339° North 414 476 27,900 823 Climbing Denver Center
Fri 09:55:39 PM 41.5150 -105.2100 340° North 408 470 28,700 823 Climbing Denver Center
Fri 09:56:41 PM 41.6208 -105.2967 329° Northwest 402 463 29,600 726 Climbing Denver Center
Fri 09:57:43 PM 41.6897 -105.3719 321° Northwest 399 459 30,200 774 Climbing Denver Center
Fri 09:58:45 PM 41.7992 -105.4897 321° Northwest 396 456 31,200 871 Climbing Denver Center
Fri 09:59:47 PM 41.8825 -105.5772 322° Northwest 397 457 32,000 387 Climbing Denver Center
Fri 10:00:49 PM 41.9778 -105.6839 320° Northwest 400 460 32,000  Level Denver Center
Fri 10:02:03 PM 42.0625 -105.7758 321° Northwest 406 467 32,000  Level Denver Center
Fri 10:03:05 PM 42.1783 -105.9047 321° Northwest 421 484 32,000  Level Denver Center
Fri 10:04:07 PM 42.2667 -106.0033 320° Northwest 429 494 32,000  Level Denver Center
Fri 10:05:09 PM 42.3722 -106.1211 321° Northwest 437 503 32,000  Level Denver Center
Fri 10:06:11 PM 42.4650 -106.2219 321° Northwest 443 510 32,000  Level Denver Center
Fri 10:07:13 PM 42.5706 -106.3419 320° Northwest 443 510 32,000  Level Denver Center
Fri 10:08:15 PM 42.6625 -106.4447 321° Northwest 444 511 32,000  Level Denver Center
Fri 10:09:17 PM 42.7536 -106.5469 321° Northwest 443 510 32,000  Level Denver Center
Fri 10:10:19 PM 42.8600 -106.6689 320° Northwest 448 516 32,000  Level Denver Center
Fri 10:11:21 PM 42.9506 -106.7700 321° Northwest 442 509 32,000  Level Denver Center
Fri 10:12:23 PM 43.0558 -106.8933 319° Northwest 447 514 32,000  Level Denver Center
Fri 10:13:25 PM 43.1550 -107.0056 320° Northwest 441 507 32,000  Level Denver Center
Fri 10:13:59 PM 43.1992 -107.0592 319° Northwest 440 506 32,000  Level Salt Lake Center
Fri 10:15:00 PM 43.3058 -107.1814 320° Northwest 446 513 32,000  Level Salt Lake Center
Fri 10:15:29 PM 43.3511 -107.2342 320° Northwest 443 510 32,000  Level Denver Center
Fri 10:16:02 PM 43.3961 -107.2872 319° Northwest 445 512 32,000  Level Salt Lake Center
Fri 10:17:03 PM 43.4853 -107.3944 319° Northwest 444 511 32,000  Level Salt Lake Center
Fri 10:18:05 PM 43.5903 -107.5178 320° Northwest 444 511 32,000 -537 Level Salt Lake Center
Fri 10:19:06 PM 43.6811 -107.6242 320° Northwest 446 513 30,900 -1,951 Descending Salt Lake Center
Fri 10:20:08 PM 43.7847 -107.7425 321° Northwest 435 501 28,000 -2,585 Descending Salt Lake Center
Fri 10:21:09 PM 43.8706 -107.8439 320° Northwest 426 490 25,600 -2,244 Descending Salt Lake Center
Fri 10:22:11 PM 43.9525 -107.9450 318° Northwest 417 480 23,400 -2,244 Descending Salt Lake Center
Fri 10:23:12 PM 44.0375 -108.0578 316° Northwest 387 445 21,000 -2,146 Descending Salt Lake Center
Fri 10:24:14 PM 44.1039 -108.1628 311° West 378 435 19,000 -2,032 Descending Salt Lake Center
Fri 10:25:16 PM 44.1819 -108.2825 312° West 376 433 16,800 -2,049 Descending Salt Lake Center
Fri 10:26:17 PM 44.2408 -108.3739 312° West 357 411 14,800 -1,377 Descending Salt Lake Center
Fri 10:27:18 PM 44.3014 -108.4361 324° Northwest 319 367 14,000 -390 Descending Salt Lake Center
Fri 10:28:20 PM 44.3772 -108.3939 22° Northeast 273 314 14,000  Level Salt Lake Center
Fri 10:29:21 PM 44.4411 -108.3564 23° Northeast 262 302 14,000  Level Salt Lake Center
Fri 10:30:23 PM 44.5194 -108.3181 19° North 264 304 14,000  Level Salt Lake Center
Fri 10:31:24 PM 44.5883 -108.2861 18° North 267 307 14,000  Level Salt Lake Center
Fri 10:32:26 PM 44.6572 -108.2600 15° North 267 307 14,000 -439 Level Salt Lake Center
Fri 10:33:27 PM 44.7058 -108.3333 313° West 257 296 13,100 -1,268 Descending Salt Lake Center
Fri 10:34:29 PM 44.6983 -108.4264 264° West 251 289 11,400 -1,756 Descending Salt Lake Center
Fri 10:35:30 PM 44.6881 -108.5331 262° West 248 285 9,500 -1,171 Descending Salt Lake Center
Fri 10:36:32 PM 44.6789 -108.6231 262° West 247 284 9,000 -244 Descending Salt Lake Center
Fri 10:37:33 PM 44.6706 -108.7097 262° West 241 277 9,000 -341 Level Salt Lake Center
Fri 10:38:35 PM 44.6483 -108.7917 249° West 219 252 8,300 -732 Descending Salt Lake Center
Fri 10:39:36 PM 44.6167 -108.8553 235° Southwest 212 244 7,500 -390 Descending Salt Lake Center
Fri 10:40:38 PM 44.5717 -108.9186 225° Southwest 206 237 7,500 -293 Level Salt Lake Center
Fri 10:41:39 PM 44.5283 -108.9628 216° Southwest 201 231 6,900 -590 Descending Salt Lake Center

Login

Don't have an account? Register now (free) for customized features, flight alerts, and more!